sensor_id;sensor_type;location;lat;lon;timestamp;pressure;altitude;pressure_sealevel;temperature;humidity
48810;BME280;40070;47.322;18.784;2022-12-18T00:01:05;1017.19;;;-1.13;73.08
48810;BME280;40070;47.322;18.784;2022-12-18T00:03:08;1017.16;;;-1.07;72.85
48810;BME280;40070;47.322;18.784;2022-12-18T00:05:10;1017.25;;;-1.08;72.82
48810;BME280;40070;47.322;18.784;2022-12-18T00:07:12;1017.30;;;-1.13;73.10
48810;BME280;40070;47.322;18.784;2022-12-18T00:09:15;1017.29;;;-1.18;72.98
48810;BME280;40070;47.322;18.784;2022-12-18T00:11:19;1017.34;;;-1.15;73.06
48810;BME280;40070;47.322;18.784;2022-12-18T00:13:21;1017.39;;;-1.19;73.33
48810;BME280;40070;47.322;18.784;2022-12-18T00:15:24;1017.44;;;-0.85;72.68
48810;BME280;40070;47.322;18.784;2022-12-18T00:17:26;1017.44;;;-0.57;71.92
48810;BME280;40070;47.322;18.784;2022-12-18T00:19:28;1017.50;;;-0.51;71.32
48810;BME280;40070;47.322;18.784;2022-12-18T00:21:31;1017.54;;;-0.29;70.33
48810;BME280;40070;47.322;18.784;2022-12-18T00:23:34;1017.59;;;0.08;69.35
48810;BME280;40070;47.322;18.784;2022-12-18T00:25:37;1017.67;;;0.13;69.12
48810;BME280;40070;47.322;18.784;2022-12-18T00:27:39;1017.67;;;-0.16;69.09
48810;BME280;40070;47.322;18.784;2022-12-18T00:29:42;1017.67;;;-0.01;69.23
48810;BME280;40070;47.322;18.784;2022-12-18T00:31:44;1017.71;;;-0.20;69.48
48810;BME280;40070;47.322;18.784;2022-12-18T00:33:47;1017.72;;;-0.02;69.08
48810;BME280;40070;47.322;18.784;2022-12-18T00:35:49;1017.72;;;-0.77;70.28
48810;BME280;40070;47.322;18.784;2022-12-18T00:37:51;1017.76;;;-0.73;71.00
48810;BME280;40070;47.322;18.784;2022-12-18T00:39:54;1017.79;;;-0.35;70.07
48810;BME280;40070;47.322;18.784;2022-12-18T00:41:56;1017.87;;;-0.59;70.35
48810;BME280;40070;47.322;18.784;2022-12-18T00:43:58;1017.88;;;-0.52;70.82
48810;BME280;40070;47.322;18.784;2022-12-18T00:46:01;1017.93;;;-0.49;70.00
48810;BME280;40070;47.322;18.784;2022-12-18T00:48:03;1018.00;;;-0.33;69.32
48810;BME280;40070;47.322;18.784;2022-12-18T00:50:06;1018.01;;;-0.15;69.15
48810;BME280;40070;47.322;18.784;2022-12-18T00:52:08;1018.00;;;-0.02;68.19
48810;BME280;40070;47.322;18.784;2022-12-18T00:54:11;1018.03;;;-0.38;68.85
48810;BME280;40070;47.322;18.784;2022-12-18T00:56:13;1018.02;;;-0.32;69.17
48810;BME280;40070;47.322;18.784;2022-12-18T00:58:16;1018.10;;;-0.06;67.99
48810;BME280;40070;47.322;18.784;2022-12-18T01:00:18;1018.12;;;-0.09;68.14
48810;BME280;40070;47.322;18.784;2022-12-18T01:02:21;1018.14;;;-0.57;68.94
48810;BME280;40070;47.322;18.784;2022-12-18T01:04:23;1018.11;;;-0.45;68.90
48810;BME280;40070;47.322;18.784;2022-12-18T01:06:25;1018.12;;;-0.61;68.51
48810;BME280;40070;47.322;18.784;2022-12-18T01:08:28;1018.15;;;-0.98;70.04
48810;BME280;40070;47.322;18.784;2022-12-18T01:10:30;1018.20;;;-0.91;70.27
48810;BME280;40070;47.322;18.784;2022-12-18T01:12:32;1018.22;;;-0.44;69.29
48810;BME280;40070;47.322;18.784;2022-12-18T01:14:36;1018.20;;;-0.34;68.65
48810;BME280;40070;47.322;18.784;2022-12-18T01:16:38;1018.25;;;-0.29;67.96
48810;BME280;40070;47.322;18.784;2022-12-18T01:18:41;1018.37;;;-0.05;67.53
48810;BME280;40070;47.322;18.784;2022-12-18T01:20:43;1018.41;;;0.16;66.95
48810;BME280;40070;47.322;18.784;2022-12-18T01:22:45;1018.45;;;0.17;66.47
48810;BME280;40070;47.322;18.784;2022-12-18T01:24:48;1018.46;;;0.33;65.87
48810;BME280;40070;47.322;18.784;2022-12-18T01:26:50;1018.45;;;0.30;65.46
48810;BME280;40070;47.322;18.784;2022-12-18T01:28:54;1018.49;;;0.30;65.39
48810;BME280;40070;47.322;18.784;2022-12-18T01:30:56;1018.47;;;0.04;65.09
48810;BME280;40070;47.322;18.784;2022-12-18T01:32:58;1018.47;;;-0.53;66.91
48810;BME280;40070;47.322;18.784;2022-12-18T01:35:01;1018.46;;;-0.24;66.74
48810;BME280;40070;47.322;18.784;2022-12-18T01:37:04;1018.48;;;-0.23;66.65
48810;BME280;40070;47.322;18.784;2022-12-18T01:39:07;1018.50;;;-0.17;66.53
48810;BME280;40070;47.322;18.784;2022-12-18T01:41:10;1018.49;;;-0.22;66.28
48810;BME280;40070;47.322;18.784;2022-12-18T01:43:12;1018.49;;;-0.13;66.15
48810;BME280;40070;47.322;18.784;2022-12-18T01:47:31;1018.60;;;-1.41;69.99
48810;BME280;40070;47.322;18.784;2022-12-18T01:49:34;1018.70;;;-1.84;71.53
48810;BME280;40070;47.322;18.784;2022-12-18T01:51:36;1018.66;;;-2.04;72.79
48810;BME280;40070;47.322;18.784;2022-12-18T01:53:39;1018.65;;;-1.91;72.72
48810;BME280;40070;47.322;18.784;2022-12-18T01:55:51;1018.65;;;-1.92;72.99
48810;BME280;40070;47.322;18.784;2022-12-18T01:57:54;1018.69;;;-1.87;72.91
48810;BME280;40070;47.322;18.784;2022-12-18T01:59:59;1018.71;;;-1.62;72.30
48810;BME280;40070;47.322;18.784;2022-12-18T02:02:02;1018.74;;;-1.58;72.17
48810;BME280;40070;47.322;18.784;2022-12-18T02:04:25;1018.71;;;-1.79;72.55
48810;BME280;40070;47.322;18.784;2022-12-18T02:06:33;1018.76;;;-1.65;72.32
48810;BME280;40070;47.322;18.784;2022-12-18T02:08:44;1018.78;;;-1.32;71.97
48810;BME280;40070;47.322;18.784;2022-12-18T02:13:19;1018.88;;;-1.72;72.13
48810;BME280;40070;47.322;18.784;2022-12-18T02:15:27;1018.89;;;-1.73;72.34
48810;BME280;40070;47.322;18.784;2022-12-18T02:17:37;1018.88;;;-1.49;71.65
48810;BME280;40070;47.322;18.784;2022-12-18T02:22:26;1018.92;;;-1.10;70.33
48810;BME280;40070;47.322;18.784;2022-12-18T02:24:39;1018.92;;;-0.66;68.95
48810;BME280;40070;47.322;18.784;2022-12-18T02:26:47;1018.98;;;-0.77;67.73
48810;BME280;40070;47.322;18.784;2022-12-18T02:29:05;1018.96;;;-0.62;67.46
48810;BME280;40070;47.322;18.784;2022-12-18T02:31:09;1018.99;;;-0.54;66.92
48810;BME280;40070;47.322;18.784;2022-12-18T02:33:13;1019.05;;;-0.39;66.75
48810;BME280;40070;47.322;18.784;2022-12-18T02:35:17;1019.06;;;-0.44;66.51
48810;BME280;40070;47.322;18.784;2022-12-18T02:37:21;1019.11;;;-0.46;66.53
48810;BME280;40070;47.322;18.784;2022-12-18T02:39:25;1019.10;;;-0.43;66.07
48810;BME280;40070;47.322;18.784;2022-12-18T02:41:28;1019.10;;;-0.49;66.12
48810;BME280;40070;47.322;18.784;2022-12-18T02:43:31;1019.11;;;-0.48;66.08
48810;BME280;40070;47.322;18.784;2022-12-18T02:45:34;1019.15;;;-0.37;65.48
48810;BME280;40070;47.322;18.784;2022-12-18T02:47:37;1019.20;;;-0.40;65.54
48810;BME280;40070;47.322;18.784;2022-12-18T02:54:35;1019.31;;;-1.44;68.90
48810;BME280;40070;47.322;18.784;2022-12-18T02:56:32;1019.25;;;-1.69;70.37
48810;BME280;40070;47.322;18.784;2022-12-18T02:58:58;1019.28;;;-1.67;70.51
48810;BME280;40070;47.322;18.784;2022-12-18T03:01:08;1019.28;;;-1.73;71.37
48810;BME280;40070;47.322;18.784;2022-12-18T03:03:18;1019.34;;;-1.38;70.64
48810;BME280;40070;47.322;18.784;2022-12-18T03:05:30;1019.35;;;-1.15;69.71
48810;BME280;40070;47.322;18.784;2022-12-18T03:07:35;1019.38;;;-1.38;70.52
48810;BME280;40070;47.322;18.784;2022-12-18T03:09:40;1019.46;;;-1.47;70.59
48810;BME280;40070;47.322;18.784;2022-12-18T03:11:45;1019.46;;;-0.99;69.60
48810;BME280;40070;47.322;18.784;2022-12-18T03:13:50;1019.47;;;-0.70;68.34
48810;BME280;40070;47.322;18.784;2022-12-18T03:15:54;1019.42;;;-0.65;67.23
48810;BME280;40070;47.322;18.784;2022-12-18T03:18:02;1019.43;;;-0.78;67.30
48810;BME280;40070;47.322;18.784;2022-12-18T03:20:08;1019.50;;;-1.32;69.49
48810;BME280;40070;47.322;18.784;2022-12-18T03:22:12;1019.49;;;-1.67;70.56
48810;BME280;40070;47.322;18.784;2022-12-18T03:24:15;1019.50;;;-1.80;71.39
48810;BME280;40070;47.322;18.784;2022-12-18T03:26:19;1019.54;;;-1.44;70.92
48810;BME280;40070;47.322;18.784;2022-12-18T03:28:24;1019.62;;;-1.39;69.83
48810;BME280;40070;47.322;18.784;2022-12-18T03:30:26;1019.71;;;-1.24;68.70
48810;BME280;40070;47.322;18.784;2022-12-18T03:32:31;1019.68;;;-1.21;68.71
48810;BME280;40070;47.322;18.784;2022-12-18T03:34:35;1019.75;;;-1.07;68.55
48810;BME280;40070;47.322;18.784;2022-12-18T03:36:40;1019.69;;;-0.77;67.12
48810;BME280;40070;47.322;18.784;2022-12-18T03:38:42;1019.67;;;-0.86;67.01
48810;BME280;40070;47.322;18.784;2022-12-18T03:43:02;1019.83;;;-1.77;69.71
48810;BME280;40070;47.322;18.784;2022-12-18T03:47:25;1019.83;;;-2.63;72.67
48810;BME280;40070;47.322;18.784;2022-12-18T03:49:40;1019.83;;;-2.30;72.91
48810;BME280;40070;47.322;18.784;2022-12-18T03:52:01;1019.92;;;-1.90;70.33
48810;BME280;40070;47.322;18.784;2022-12-18T03:54:06;1019.97;;;-1.64;69.22
48810;BME280;40070;47.322;18.784;2022-12-18T03:56:10;1019.98;;;-1.92;69.55
48810;BME280;40070;47.322;18.784;2022-12-18T03:58:15;1020.04;;;-1.62;69.36
48810;BME280;40070;47.322;18.784;2022-12-18T04:00:19;1020.03;;;-1.30;68.45
48810;BME280;40070;47.322;18.784;2022-12-18T04:02:22;1020.01;;;-1.11;67.89
48810;BME280;40070;47.322;18.784;2022-12-18T04:04:25;1019.98;;;-0.91;66.54
48810;BME280;40070;47.322;18.784;2022-12-18T04:06:29;1019.95;;;-1.73;68.13
48810;BME280;40070;47.322;18.784;2022-12-18T04:08:32;1019.98;;;-2.14;70.06
48810;BME280;40070;47.322;18.784;2022-12-18T04:10:35;1020.03;;;-2.41;71.10
48810;BME280;40070;47.322;18.784;2022-12-18T04:12:37;1020.06;;;-2.45;72.27
48810;BME280;40070;47.322;18.784;2022-12-18T04:14:40;1020.05;;;-2.38;72.43
48810;BME280;40070;47.322;18.784;2022-12-18T04:16:42;1020.07;;;-2.30;72.83
48810;BME280;40070;47.322;18.784;2022-12-18T04:18:44;1020.09;;;-2.36;73.00
48810;BME280;40070;47.322;18.784;2022-12-18T04:20:47;1020.08;;;-2.39;73.01
48810;BME280;40070;47.322;18.784;2022-12-18T04:22:49;1020.05;;;-2.50;73.40
48810;BME280;40070;47.322;18.784;2022-12-18T04:24:51;1020.04;;;-2.59;73.94
48810;BME280;40070;47.322;18.784;2022-12-18T04:26:54;1020.08;;;-2.47;73.73
48810;BME280;40070;47.322;18.784;2022-12-18T04:28:56;1020.04;;;-2.64;74.16
48810;BME280;40070;47.322;18.784;2022-12-18T04:30:58;1020.03;;;-2.61;74.28
48810;BME280;40070;47.322;18.784;2022-12-18T04:33:01;1020.15;;;-2.49;73.99
48810;BME280;40070;47.322;18.784;2022-12-18T04:35:04;1020.17;;;-2.39;73.95
48810;BME280;40070;47.322;18.784;2022-12-18T04:37:06;1020.19;;;-2.08;73.65
48810;BME280;40070;47.322;18.784;2022-12-18T04:39:08;1020.22;;;-1.56;71.84
48810;BME280;40070;47.322;18.784;2022-12-18T04:41:11;1020.31;;;-1.46;70.68
48810;BME280;40070;47.322;18.784;2022-12-18T04:43:13;1020.29;;;-1.31;70.06
48810;BME280;40070;47.322;18.784;2022-12-18T04:45:15;1020.36;;;-1.29;69.31
48810;BME280;40070;47.322;18.784;2022-12-18T04:47:18;1020.41;;;-1.20;68.76
48810;BME280;40070;47.322;18.784;2022-12-18T04:49:20;1020.42;;;-1.51;69.27
48810;BME280;40070;47.322;18.784;2022-12-18T04:51:22;1020.39;;;-2.24;71.78
48810;BME280;40070;47.322;18.784;2022-12-18T04:53:25;1020.40;;;-2.41;72.42
48810;BME280;40070;47.322;18.784;2022-12-18T04:55:27;1020.47;;;-2.53;72.91
48810;BME280;40070;47.322;18.784;2022-12-18T04:57:30;1020.46;;;-2.26;72.72
48810;BME280;40070;47.322;18.784;2022-12-18T04:59:32;1020.49;;;-1.84;71.44
48810;BME280;40070;47.322;18.784;2022-12-18T05:01:34;1020.55;;;-1.73;69.90
48810;BME280;40070;47.322;18.784;2022-12-18T05:03:37;1020.62;;;-1.58;69.28
48810;BME280;40070;47.322;18.784;2022-12-18T05:05:39;1020.60;;;-1.45;68.65
48810;BME280;40070;47.322;18.784;2022-12-18T05:07:42;1020.63;;;-1.44;68.22
48810;BME280;40070;47.322;18.784;2022-12-18T05:09:44;1020.60;;;-1.50;68.17
48810;BME280;40070;47.322;18.784;2022-12-18T05:11:46;1020.57;;;-1.79;69.08
48810;BME280;40070;47.322;18.784;2022-12-18T05:13:49;1020.64;;;-2.20;70.79
48810;BME280;40070;47.322;18.784;2022-12-18T05:15:51;1020.62;;;-2.20;71.25
48810;BME280;40070;47.322;18.784;2022-12-18T05:17:54;1020.67;;;-2.35;71.55
48810;BME280;40070;47.322;18.784;2022-12-18T05:19:56;1020.71;;;-2.15;71.54
48810;BME280;40070;47.322;18.784;2022-12-18T05:21:59;1020.73;;;-2.42;72.20
48810;BME280;40070;47.322;18.784;2022-12-18T05:24:01;1020.75;;;-2.15;71.42
48810;BME280;40070;47.322;18.784;2022-12-18T05:26:04;1020.73;;;-2.24;71.86
48810;BME280;40070;47.322;18.784;2022-12-18T05:28:06;1020.71;;;-2.24;71.53
48810;BME280;40070;47.322;18.784;2022-12-18T05:30:09;1020.75;;;-2.33;71.70
48810;BME280;40070;47.322;18.784;2022-12-18T05:32:11;1020.82;;;-1.84;70.32
48810;BME280;40070;47.322;18.784;2022-12-18T05:34:14;1020.80;;;-1.69;69.48
48810;BME280;40070;47.322;18.784;2022-12-18T05:36:19;1020.88;;;-1.74;69.11
48810;BME280;40070;47.322;18.784;2022-12-18T05:38:22;1020.81;;;-1.81;69.50
48810;BME280;40070;47.322;18.784;2022-12-18T05:40:25;1020.88;;;-1.59;69.08
48810;BME280;40070;47.322;18.784;2022-12-18T05:42:27;1020.91;;;-1.52;68.36
48810;BME280;40070;47.322;18.784;2022-12-18T05:44:29;1021.00;;;-1.66;67.73
48810;BME280;40070;47.322;18.784;2022-12-18T05:46:32;1021.03;;;-1.72;68.15
48810;BME280;40070;47.322;18.784;2022-12-18T05:48:34;1021.09;;;-2.13;69.50
48810;BME280;40070;47.322;18.784;2022-12-18T05:50:37;1021.07;;;-1.89;69.51
48810;BME280;40070;47.322;18.784;2022-12-18T05:52:40;1021.02;;;-1.72;69.07
48810;BME280;40070;47.322;18.784;2022-12-18T05:54:42;1021.07;;;-1.76;67.90
48810;BME280;40070;47.322;18.784;2022-12-18T05:56:44;1021.11;;;-1.90;68.26
48810;BME280;40070;47.322;18.784;2022-12-18T05:58:47;1021.10;;;-1.71;68.11
48810;BME280;40070;47.322;18.784;2022-12-18T06:00:52;1021.05;;;-1.93;68.45
48810;BME280;40070;47.322;18.784;2022-12-18T06:02:55;1021.10;;;-2.45;70.57
48810;BME280;40070;47.322;18.784;2022-12-18T06:04:57;1021.16;;;-2.89;72.16
48810;BME280;40070;47.322;18.784;2022-12-18T06:06:59;1021.18;;;-3.07;73.58
48810;BME280;40070;47.322;18.784;2022-12-18T06:09:03;1021.15;;;-3.06;73.84
48810;BME280;40070;47.322;18.784;2022-12-18T06:11:05;1021.17;;;-3.03;74.48
48810;BME280;40070;47.322;18.784;2022-12-18T06:13:08;1021.27;;;-2.93;74.17
48810;BME280;40070;47.322;18.784;2022-12-18T06:15:10;1021.33;;;-2.87;74.06
48810;BME280;40070;47.322;18.784;2022-12-18T06:17:13;1021.32;;;-2.73;74.11
48810;BME280;40070;47.322;18.784;2022-12-18T06:19:15;1021.32;;;-2.31;72.12
48810;BME280;40070;47.322;18.784;2022-12-18T06:21:18;1021.34;;;-2.16;71.06
48810;BME280;40070;47.322;18.784;2022-12-18T06:23:20;1021.38;;;-1.99;70.41
48810;BME280;40070;47.322;18.784;2022-12-18T06:25:23;1021.35;;;-1.81;69.61
48810;BME280;40070;47.322;18.784;2022-12-18T06:27:25;1021.33;;;-1.76;69.37
48810;BME280;40070;47.322;18.784;2022-12-18T06:29:27;1021.45;;;-1.56;68.93
48810;BME280;40070;47.322;18.784;2022-12-18T06:31:30;1021.49;;;-2.07;69.79
48810;BME280;40070;47.322;18.784;2022-12-18T06:33:32;1021.53;;;-2.38;71.17
48810;BME280;40070;47.322;18.784;2022-12-18T06:35:34;1021.54;;;-2.71;72.56
48810;BME280;40070;47.322;18.784;2022-12-18T06:37:37;1021.53;;;-2.54;72.82
48810;BME280;40070;47.322;18.784;2022-12-18T06:39:39;1021.56;;;-2.73;73.41
48810;BME280;40070;47.322;18.784;2022-12-18T06:41:41;1021.60;;;-2.63;73.51
48810;BME280;40070;47.322;18.784;2022-12-18T06:43:44;1021.62;;;-2.70;73.55
48810;BME280;40070;47.322;18.784;2022-12-18T06:45:46;1021.66;;;-2.60;73.78
48810;BME280;40070;47.322;18.784;2022-12-18T06:47:48;1021.66;;;-2.05;72.40
48810;BME280;40070;47.322;18.784;2022-12-18T06:49:51;1021.66;;;-1.83;71.01
48810;BME280;40070;47.322;18.784;2022-12-18T06:51:53;1021.66;;;-1.61;69.94
48810;BME280;40070;47.322;18.784;2022-12-18T06:53:55;1021.70;;;-2.16;71.41
48810;BME280;40070;47.322;18.784;2022-12-18T06:56:01;1021.77;;;-2.51;72.61
48810;BME280;40070;47.322;18.784;2022-12-18T06:58:04;1021.79;;;-2.51;73.11
48810;BME280;40070;47.322;18.784;2022-12-18T07:00:06;1021.82;;;-2.04;72.10
48810;BME280;40070;47.322;18.784;2022-12-18T07:02:11;1021.88;;;-1.64;70.80
48810;BME280;40070;47.322;18.784;2022-12-18T07:04:13;1021.92;;;-1.92;70.49
48810;BME280;40070;47.322;18.784;2022-12-18T07:06:16;1021.95;;;-2.15;71.69
48810;BME280;40070;47.322;18.784;2022-12-18T07:08:19;1021.98;;;-2.38;72.44
48810;BME280;40070;47.322;18.784;2022-12-18T07:10:21;1022.00;;;-2.18;72.51
48810;BME280;40070;47.322;18.784;2022-12-18T07:12:24;1022.02;;;-2.35;72.84
48810;BME280;40070;47.322;18.784;2022-12-18T07:14:26;1022.09;;;-2.39;73.08
48810;BME280;40070;47.322;18.784;2022-12-18T07:16:28;1022.15;;;-2.43;73.78
48810;BME280;40070;47.322;18.784;2022-12-18T07:18:31;1022.19;;;-1.94;72.68
48810;BME280;40070;47.322;18.784;2022-12-18T07:20:33;1022.21;;;-1.81;71.38
48810;BME280;40070;47.322;18.784;2022-12-18T07:22:35;1022.24;;;-2.03;71.79
48810;BME280;40070;47.322;18.784;2022-12-18T07:24:38;1022.23;;;-1.86;71.88
48810;BME280;40070;47.322;18.784;2022-12-18T07:26:40;1022.28;;;-1.78;72.08
48810;BME280;40070;47.322;18.784;2022-12-18T07:28:42;1022.29;;;-2.00;71.97
48810;BME280;40070;47.322;18.784;2022-12-18T07:30:45;1022.30;;;-1.74;71.74
48810;BME280;40070;47.322;18.784;2022-12-18T07:32:47;1022.34;;;-1.69;71.50
48810;BME280;40070;47.322;18.784;2022-12-18T07:34:49;1022.38;;;-1.73;71.68
48810;BME280;40070;47.322;18.784;2022-12-18T07:36:52;1022.44;;;-1.51;71.11
48810;BME280;40070;47.322;18.784;2022-12-18T07:38:54;1022.47;;;-1.39;70.81
48810;BME280;40070;47.322;18.784;2022-12-18T07:41:00;1022.50;;;-1.10;69.75
48810;BME280;40070;47.322;18.784;2022-12-18T07:43:02;1022.51;;;-1.42;70.56
48810;BME280;40070;47.322;18.784;2022-12-18T07:45:05;1022.60;;;-1.32;70.78
48810;BME280;40070;47.322;18.784;2022-12-18T07:47:08;1022.64;;;-1.44;70.77
48810;BME280;40070;47.322;18.784;2022-12-18T07:49:10;1022.66;;;-1.28;70.24
48810;BME280;40070;47.322;18.784;2022-12-18T07:51:13;1022.71;;;-1.00;69.61
48810;BME280;40070;47.322;18.784;2022-12-18T07:53:15;1022.73;;;-1.44;70.62
48810;BME280;40070;47.322;18.784;2022-12-18T07:55:17;1022.75;;;-1.48;71.03
48810;BME280;40070;47.322;18.784;2022-12-18T07:57:20;1022.81;;;-1.30;71.17
48810;BME280;40070;47.322;18.784;2022-12-18T07:59:22;1022.90;;;-1.17;70.29
48810;BME280;40070;47.322;18.784;2022-12-18T08:01:24;1022.89;;;-0.74;69.81
48810;BME280;40070;47.322;18.784;2022-12-18T08:03:27;1022.91;;;-1.01;69.94
48810;BME280;40070;47.322;18.784;2022-12-18T08:05:29;1022.93;;;-0.86;69.72
48810;BME280;40070;47.322;18.784;2022-12-18T08:07:31;1022.94;;;-0.66;69.44
48810;BME280;40070;47.322;18.784;2022-12-18T08:09:34;1022.92;;;-0.73;69.17
48810;BME280;40070;47.322;18.784;2022-12-18T08:11:36;1022.92;;;-0.72;69.23
48810;BME280;40070;47.322;18.784;2022-12-18T08:13:39;1022.96;;;-0.66;69.12
48810;BME280;40070;47.322;18.784;2022-12-18T08:15:41;1023.03;;;-0.86;69.61
48810;BME280;40070;47.322;18.784;2022-12-18T08:17:43;1023.03;;;-0.40;68.88
48810;BME280;40070;47.322;18.784;2022-12-18T08:19:46;1023.01;;;-0.36;68.37
48810;BME280;40070;47.322;18.784;2022-12-18T08:21:48;1022.96;;;-0.39;68.17
48810;BME280;40070;47.322;18.784;2022-12-18T08:23:51;1023.01;;;-0.63;68.65
48810;BME280;40070;47.322;18.784;2022-12-18T08:25:54;1023.03;;;-0.76;69.30
48810;BME280;40070;47.322;18.784;2022-12-18T08:27:56;1023.06;;;-0.87;69.36
48810;BME280;40070;47.322;18.784;2022-12-18T08:29:59;1023.04;;;-0.87;69.74
48810;BME280;40070;47.322;18.784;2022-12-18T08:32:01;1023.11;;;-0.63;69.23
48810;BME280;40070;47.322;18.784;2022-12-18T08:34:04;1023.13;;;-0.60;69.18
48810;BME280;40070;47.322;18.784;2022-12-18T08:36:07;1023.09;;;-0.62;69.06
48810;BME280;40070;47.322;18.784;2022-12-18T08:38:10;1023.04;;;-0.39;68.70
48810;BME280;40070;47.322;18.784;2022-12-18T08:40:12;1023.07;;;-0.16;67.83
48810;BME280;40070;47.322;18.784;2022-12-18T08:42:14;1023.09;;;-0.12;67.94
48810;BME280;40070;47.322;18.784;2022-12-18T08:44:17;1023.10;;;0.01;67.27
48810;BME280;40070;47.322;18.784;2022-12-18T08:46:20;1023.11;;;0.02;67.21
48810;BME280;40070;47.322;18.784;2022-12-18T08:48:23;1023.13;;;-0.04;67.32
48810;BME280;40070;47.322;18.784;2022-12-18T08:50:25;1023.14;;;0.35;66.79
48810;BME280;40070;47.322;18.784;2022-12-18T08:52:27;1023.15;;;0.41;65.94
48810;BME280;40070;47.322;18.784;2022-12-18T08:54:30;1023.14;;;0.57;66.17
48810;BME280;40070;47.322;18.784;2022-12-18T08:56:32;1023.17;;;0.61;65.88
48810;BME280;40070;47.322;18.784;2022-12-18T08:58:35;1023.19;;;0.60;65.25
48810;BME280;40070;47.322;18.784;2022-12-18T09:00:37;1023.23;;;0.36;65.59
48810;BME280;40070;47.322;18.784;2022-12-18T09:02:40;1023.27;;;0.66;65.43
48810;BME280;40070;47.322;18.784;2022-12-18T09:04:42;1023.31;;;0.55;64.94
48810;BME280;40070;47.322;18.784;2022-12-18T09:06:44;1023.29;;;0.51;64.78
48810;BME280;40070;47.322;18.784;2022-12-18T09:08:47;1023.30;;;0.20;65.80
48810;BME280;40070;47.322;18.784;2022-12-18T09:10:49;1023.27;;;0.54;65.53
48810;BME280;40070;47.322;18.784;2022-12-18T09:12:52;1023.30;;;0.86;64.88
48810;BME280;40070;47.322;18.784;2022-12-18T09:14:54;1023.32;;;0.67;65.28
48810;BME280;40070;47.322;18.784;2022-12-18T09:16:56;1023.34;;;0.88;64.44
48810;BME280;40070;47.322;18.784;2022-12-18T09:18:59;1023.31;;;1.24;63.40
48810;BME280;40070;47.322;18.784;2022-12-18T09:21:08;1023.25;;;1.18;62.88
48810;BME280;40070;47.322;18.784;2022-12-18T09:23:11;1023.30;;;1.28;62.22
48810;BME280;40070;47.322;18.784;2022-12-18T09:25:13;1023.27;;;1.39;62.24
48810;BME280;40070;47.322;18.784;2022-12-18T09:27:15;1023.23;;;1.49;61.87
48810;BME280;40070;47.322;18.784;2022-12-18T09:29:18;1023.28;;;1.61;61.82
48810;BME280;40070;47.322;18.784;2022-12-18T09:31:20;1023.19;;;1.38;62.99
48810;BME280;40070;47.322;18.784;2022-12-18T09:33:23;1023.14;;;1.92;60.78
48810;BME280;40070;47.322;18.784;2022-12-18T09:35:26;1023.13;;;1.88;60.68
48810;BME280;40070;47.322;18.784;2022-12-18T09:37:28;1023.19;;;2.08;61.14
48810;BME280;40070;47.322;18.784;2022-12-18T09:39:30;1023.25;;;1.56;61.16
48810;BME280;40070;47.322;18.784;2022-12-18T09:41:54;1023.29;;;1.48;60.91
48810;BME280;40070;47.322;18.784;2022-12-18T09:43:55;1023.34;;;1.38;61.19
48810;BME280;40070;47.322;18.784;2022-12-18T09:46:00;1023.21;;;1.64;60.84
48810;BME280;40070;47.322;18.784;2022-12-18T09:48:03;1023.18;;;1.52;61.07
48810;BME280;40070;47.322;18.784;2022-12-18T09:50:18;1023.22;;;1.69;61.29
48810;BME280;40070;47.322;18.784;2022-12-18T09:52:27;1023.20;;;1.72;60.94
48810;BME280;40070;47.322;18.784;2022-12-18T09:54:41;1023.24;;;1.74;61.30
48810;BME280;40070;47.322;18.784;2022-12-18T09:56:44;1023.25;;;2.19;61.10
48810;BME280;40070;47.322;18.784;2022-12-18T09:58:47;1023.25;;;2.60;59.90
48810;BME280;40070;47.322;18.784;2022-12-18T10:00:53;1023.22;;;3.00;58.45
48810;BME280;40070;47.322;18.784;2022-12-18T10:02:59;1023.17;;;3.02;57.24
48810;BME280;40070;47.322;18.784;2022-12-18T10:05:12;1023.24;;;2.81;56.77
48810;BME280;40070;47.322;18.784;2022-12-18T10:07:26;1023.21;;;2.80;57.36
48810;BME280;40070;47.322;18.784;2022-12-18T10:09:37;1023.20;;;3.10;57.27
48810;BME280;40070;47.322;18.784;2022-12-18T10:14:13;1023.19;;;3.00;56.95
48810;BME280;40070;47.322;18.784;2022-12-18T10:20:51;1023.11;;;4.21;54.01
48810;BME280;40070;47.322;18.784;2022-12-18T10:23:37;1023.09;;;4.00;52.96
48810;BME280;40070;47.322;18.784;2022-12-18T10:25:16;1023.07;;;3.75;53.46
48810;BME280;40070;47.322;18.784;2022-12-18T10:27:25;1023.02;;;3.49;52.87
48810;BME280;40070;47.322;18.784;2022-12-18T10:29:28;1023.07;;;3.81;53.17
48810;BME280;40070;47.322;18.784;2022-12-18T10:31:30;1023.08;;;3.97;53.13
48810;BME280;40070;47.322;18.784;2022-12-18T10:33:33;1023.11;;;4.42;51.92
48810;BME280;40070;47.322;18.784;2022-12-18T10:35:35;1023.11;;;4.91;50.76
48810;BME280;40070;47.322;18.784;2022-12-18T10:37:38;1023.18;;;4.92;50.44
48810;BME280;40070;47.322;18.784;2022-12-18T10:40:12;1023.15;;;6.02;48.62
48810;BME280;40070;47.322;18.784;2022-12-18T10:42:18;1023.08;;;5.91;48.26
48810;BME280;40070;47.322;18.784;2022-12-18T10:44:21;1023.07;;;6.47;47.28
48810;BME280;40070;47.322;18.784;2022-12-18T10:46:24;1023.07;;;5.79;48.03
48810;BME280;40070;47.322;18.784;2022-12-18T10:48:27;1023.04;;;6.26;47.90
48810;BME280;40070;47.322;18.784;2022-12-18T10:50:34;1023.05;;;6.37;47.84
48810;BME280;40070;47.322;18.784;2022-12-18T10:52:36;1023.05;;;6.34;47.18
48810;BME280;40070;47.322;18.784;2022-12-18T10:54:39;1023.07;;;6.23;47.45
48810;BME280;40070;47.322;18.784;2022-12-18T10:56:41;1023.03;;;7.20;46.26
48810;BME280;40070;47.322;18.784;2022-12-18T10:58:44;1023.06;;;6.72;46.25
48810;BME280;40070;47.322;18.784;2022-12-18T11:03:31;1022.94;;;8.12;43.55
48810;BME280;40070;47.322;18.784;2022-12-18T11:05:34;1022.94;;;8.13;43.25
48810;BME280;40070;47.322;18.784;2022-12-18T11:07:49;1022.88;;;7.34;44.62
48810;BME280;40070;47.322;18.784;2022-12-18T11:10:01;1022.81;;;7.38;44.57
48810;BME280;40070;47.322;18.784;2022-12-18T11:12:24;1022.84;;;8.56;42.37
48810;BME280;40070;47.322;18.784;2022-12-18T11:14:20;1022.79;;;8.51;41.90
48810;BME280;40070;47.322;18.784;2022-12-18T11:16:23;1022.78;;;9.11;41.25
48810;BME280;40070;47.322;18.784;2022-12-18T11:18:32;1022.87;;;8.31;41.73
48810;BME280;40070;47.322;18.784;2022-12-18T11:20:35;1022.87;;;8.02;42.15
48810;BME280;40070;47.322;18.784;2022-12-18T11:22:39;1022.85;;;6.99;44.01
48810;BME280;40070;47.322;18.784;2022-12-18T11:24:41;1022.81;;;7.16;44.28